createdAt,value
2023-05-15T00:01:27.640Z,9.78
2023-05-15T00:03:56.140Z,9.77
2023-05-15T00:06:24.449Z,9.74
2023-05-15T00:08:52.704Z,9.72
2023-05-15T00:11:21.683Z,9.71
2023-05-15T00:13:50.476Z,9.70
2023-05-15T00:16:18.731Z,9.70
2023-05-15T00:18:47.291Z,9.71
2023-05-15T00:21:15.819Z,9.72
2023-05-15T00:23:44.197Z,9.73
2023-05-15T00:26:15.872Z,9.75
2023-05-15T00:28:44.241Z,9.78
2023-05-15T00:31:15.014Z,9.80
2023-05-15T00:33:43.555Z,9.82
2023-05-15T00:36:11.902Z,9.83
2023-05-15T00:38:40.318Z,9.84
2023-05-15T00:41:10.365Z,9.85
2023-05-15T00:43:39.335Z,9.86
2023-05-15T00:46:08.535Z,9.88
2023-05-15T00:48:37.220Z,9.90
2023-05-15T00:51:05.905Z,9.93
2023-05-15T00:53:34.334Z,9.97
2023-05-15T00:56:03.591Z,10.00
2023-05-15T00:58:32.277Z,10.03
2023-05-15T01:01:00.480Z,10.05
2023-05-15T01:03:29.304Z,10.06
2023-05-15T01:05:57.922Z,10.07
2023-05-15T01:08:26.410Z,10.09
2023-05-15T01:10:55.807Z,10.10
2023-05-15T01:13:24.603Z,10.11
2023-05-15T01:15:52.713Z,10.12
2023-05-15T01:18:21.796Z,10.14
2023-05-15T01:21:09.126Z,10.15
2023-05-15T01:23:46.681Z,10.16
2023-05-15T01:26:33.811Z,10.15
2023-05-15T01:29:08.237Z,10.14
2023-05-15T01:31:38.004Z,10.11
2023-05-15T01:34:08.433Z,10.08
2023-05-15T01:36:39.421Z,10.06
2023-05-15T01:39:08.708Z,10.04
2023-05-15T01:41:51.247Z,9.99
2023-05-15T01:44:32.505Z,9.97
2023-05-15T01:47:08.148Z,9.95
2023-05-15T01:49:37.658Z,9.94
2023-05-15T01:52:09.118Z,9.93
2023-05-15T01:54:37.662Z,9.93
2023-05-15T01:57:06.794Z,9.93
2023-05-15T01:59:35.878Z,9.94
2023-05-15T02:02:07.567Z,9.94
2023-05-15T02:04:38.274Z,9.94
2023-05-15T02:07:07.063Z,9.93
2023-05-15T02:09:36.877Z,9.91
2023-05-15T02:12:05.486Z,9.90
2023-05-15T02:14:33.910Z,9.89
2023-05-15T02:17:02.188Z,9.90
2023-05-15T02:19:30.912Z,9.90
2023-05-15T02:21:59.534Z,9.92
2023-05-15T02:24:27.875Z,9.94
2023-05-15T02:27:05.498Z,9.96
2023-05-15T02:29:46.244Z,10.00
2023-05-15T02:32:20.256Z,10.02
2023-05-15T02:34:56.012Z,10.04
2023-05-15T02:37:28.796Z,10.06
2023-05-15T02:39:59.934Z,10.06
2023-05-15T02:42:29.755Z,10.06
2023-05-15T02:44:58.459Z,10.05
2023-05-15T02:47:27.819Z,10.05
2023-05-15T02:49:57.043Z,10.04
2023-05-15T02:52:25.422Z,10.06
2023-05-15T02:54:53.793Z,10.08
2023-05-15T02:57:22.380Z,10.11
2023-05-15T02:59:50.766Z,10.14
2023-05-15T03:02:18.992Z,10.17
2023-05-15T03:04:48.054Z,10.20
2023-05-15T03:07:16.530Z,10.24
2023-05-15T03:09:44.971Z,10.23
2023-05-15T03:12:13.685Z,10.23
2023-05-15T03:14:42.179Z,10.20
2023-05-15T03:17:10.616Z,10.16
2023-05-15T03:19:38.825Z,10.14
2023-05-15T03:22:07.674Z,10.12
2023-05-15T03:24:36.045Z,10.10
2023-05-15T03:27:04.958Z,10.10
2023-05-15T03:29:34.091Z,10.08
2023-05-15T03:32:02.664Z,10.07
2023-05-15T03:34:30.839Z,10.07
2023-05-15T03:36:59.120Z,10.06
2023-05-15T03:39:29.243Z,10.04
2023-05-15T03:41:57.482Z,10.05
2023-05-15T03:44:25.795Z,10.08
2023-05-15T03:46:54.326Z,10.16
2023-05-15T03:49:22.860Z,10.24
2023-05-15T03:51:51.420Z,10.33
2023-05-15T03:54:19.801Z,10.40
2023-05-15T03:56:48.520Z,10.48
2023-05-15T03:59:16.795Z,10.54
2023-05-15T04:02:02.704Z,10.61
2023-05-15T04:04:32.394Z,10.67
2023-05-15T04:07:00.992Z,10.73
2023-05-15T04:09:29.366Z,10.83
2023-05-15T04:11:57.668Z,10.96
2023-05-15T04:14:25.920Z,11.07
2023-05-15T04:16:54.156Z,11.20
2023-05-15T04:19:22.515Z,11.33
2023-05-15T04:21:51.162Z,11.44
2023-05-15T04:24:19.643Z,11.56
2023-05-15T04:26:48.085Z,11.66
2023-05-15T04:29:16.425Z,11.77
2023-05-15T04:31:44.633Z,11.88
2023-05-15T04:34:12.838Z,12.00
2023-05-15T04:36:42.924Z,12.17
2023-05-15T04:39:11.442Z,12.36
2023-05-15T04:41:39.526Z,12.56
2023-05-15T04:44:08.826Z,12.74
2023-05-15T04:46:37.905Z,12.89
2023-05-15T04:49:06.917Z,13.03
2023-05-15T04:51:35.333Z,13.18
2023-05-15T04:54:04.398Z,13.33
2023-05-15T04:56:32.703Z,13.49
2023-05-15T04:59:01.372Z,13.65
2023-05-15T05:01:29.737Z,13.84
2023-05-15T05:03:58.550Z,14.01
2023-05-15T05:06:28.104Z,14.17
2023-05-15T05:08:58.565Z,14.38
2023-05-15T05:11:27.166Z,14.59
2023-05-15T05:13:55.643Z,14.81
2023-05-15T05:16:23.936Z,14.99
2023-05-15T05:18:52.287Z,15.16
2023-05-15T05:21:20.887Z,15.32
2023-05-15T05:23:49.163Z,15.54
2023-05-15T05:26:17.690Z,15.77
2023-05-15T05:28:46.018Z,15.97
2023-05-15T05:31:14.776Z,16.08
2023-05-15T05:33:42.983Z,16.15
2023-05-15T05:36:11.259Z,16.20
2023-05-15T05:38:39.703Z,16.25
2023-05-15T05:41:08.228Z,16.35
2023-05-15T05:43:36.599Z,16.47
2023-05-15T05:46:05.099Z,16.53
2023-05-15T05:48:33.385Z,16.65
2023-05-15T05:51:01.540Z,16.74
2023-05-15T05:53:29.812Z,16.90
2023-05-15T05:55:58.519Z,17.05
2023-05-15T05:58:26.877Z,17.19
2023-05-15T06:00:55.255Z,17.34
2023-05-15T06:03:24.379Z,17.48
2023-05-15T06:05:53.990Z,17.67
2023-05-15T06:08:22.455Z,17.84
2023-05-15T06:10:50.933Z,17.95
2023-05-15T06:13:19.216Z,17.99
2023-05-15T06:15:47.566Z,18.11
2023-05-15T06:18:16.059Z,18.32
2023-05-15T06:20:44.186Z,18.46
2023-05-15T06:23:12.637Z,18.56
2023-05-15T06:25:41.217Z,18.78
2023-05-15T06:28:09.681Z,18.94
2023-05-15T06:30:38.131Z,19.12
2023-05-15T06:33:06.491Z,19.28
2023-05-15T06:35:34.845Z,19.31
2023-05-15T06:38:03.325Z,19.35
2023-05-15T06:40:31.816Z,19.54
2023-05-15T06:43:00.289Z,19.74
2023-05-15T06:45:28.847Z,19.96
2023-05-15T06:47:59.158Z,20.20
2023-05-15T06:50:29.554Z,20.40
2023-05-15T06:52:58.395Z,20.50
2023-05-15T06:55:26.883Z,20.62
2023-05-15T06:57:55.590Z,20.81
2023-05-15T07:00:24.091Z,20.99
2023-05-15T07:02:52.424Z,21.22
2023-05-15T07:05:22.166Z,21.43
2023-05-15T07:07:50.542Z,21.60
2023-05-15T07:10:18.819Z,21.77
2023-05-15T07:12:46.907Z,21.92
2023-05-15T07:15:15.066Z,22.01
2023-05-15T07:17:43.626Z,22.08
2023-05-15T07:20:12.238Z,22.07
2023-05-15T07:22:51.920Z,22.01
2023-05-15T07:25:24.453Z,21.95
2023-05-15T07:27:53.577Z,21.90
2023-05-15T07:30:22.015Z,22.00
2023-05-15T07:32:50.574Z,22.16
2023-05-15T07:35:19.932Z,22.28
2023-05-15T07:37:48.269Z,22.37
2023-05-15T07:40:16.740Z,22.37
2023-05-15T07:42:46.004Z,22.40
2023-05-15T07:45:14.300Z,22.40
2023-05-15T07:47:47.273Z,22.45
2023-05-15T07:50:16.078Z,22.49
2023-05-15T07:52:44.866Z,22.62
2023-05-15T07:55:13.277Z,22.96
2023-05-15T07:57:42.275Z,23.31
2023-05-15T08:00:13.681Z,23.64
2023-05-15T08:02:46.502Z,23.92
2023-05-15T08:05:14.926Z,24.09
2023-05-15T08:07:43.312Z,24.09
2023-05-15T08:10:11.815Z,24.09
2023-05-15T08:12:46.311Z,24.15
2023-05-15T08:15:14.913Z,24.29
2023-05-15T08:17:43.575Z,24.45
2023-05-15T08:20:12.176Z,24.52
2023-05-15T08:22:40.553Z,24.34
2023-05-15T08:25:09.343Z,23.94
2023-05-15T08:27:37.729Z,23.86
2023-05-15T08:30:06.412Z,23.91
2023-05-15T08:32:34.752Z,24.10
2023-05-15T08:35:02.909Z,24.37
2023-05-15T08:37:31.451Z,24.55
2023-05-15T08:39:59.913Z,24.61
2023-05-15T08:42:33.482Z,24.50
2023-05-15T08:45:03.248Z,24.20
2023-05-15T08:47:33.172Z,23.87
2023-05-15T08:50:10.364Z,23.41
2023-05-15T08:52:38.939Z,22.99
2023-05-15T08:55:07.642Z,22.74
2023-05-15T08:57:36.314Z,22.68
2023-05-15T09:00:09.380Z,22.72
2023-05-15T09:02:41.630Z,22.82
2023-05-15T09:05:10.495Z,22.85
2023-05-15T09:07:39.644Z,22.90
2023-05-15T09:10:08.557Z,23.15
2023-05-15T09:12:39.907Z,23.47
2023-05-15T09:15:12.370Z,23.72
2023-05-15T09:17:41.031Z,24.05
2023-05-15T09:20:28.402Z,24.23
2023-05-15T09:22:57.596Z,24.45
2023-05-15T09:25:35.201Z,24.64
2023-05-15T09:28:03.494Z,24.79
2023-05-15T09:30:31.860Z,25.07
2023-05-15T09:33:05.083Z,25.26
2023-05-15T09:35:34.465Z,25.50
2023-05-15T09:38:03.766Z,25.74
2023-05-15T09:40:32.653Z,25.91
2023-05-15T09:43:01.030Z,26.04
2023-05-15T09:45:30.557Z,26.27
2023-05-15T09:48:04.971Z,26.52
2023-05-15T09:50:36.913Z,26.39
2023-05-15T09:53:05.713Z,25.82
2023-05-15T09:55:34.623Z,25.60
2023-05-15T09:58:09.151Z,25.46
2023-05-15T10:00:47.632Z,25.50
2023-05-15T10:03:20.331Z,25.66
2023-05-15T10:05:48.749Z,25.86
2023-05-15T10:08:26.323Z,25.96
2023-05-15T10:10:54.715Z,25.99
2023-05-15T10:13:23.267Z,26.05
2023-05-15T10:15:51.683Z,26.02
2023-05-15T10:18:20.749Z,26.16
2023-05-15T10:20:49.744Z,26.20
2023-05-15T10:23:19.254Z,26.15
2023-05-15T10:25:53.664Z,26.12
2023-05-15T10:28:22.987Z,26.17
2023-05-15T10:30:51.905Z,26.13
2023-05-15T10:33:21.219Z,26.14
2023-05-15T10:35:51.649Z,26.26
2023-05-15T10:38:19.727Z,26.40
2023-05-15T10:40:48.366Z,26.59
2023-05-15T10:43:16.732Z,26.70
2023-05-15T10:45:45.216Z,26.92
2023-05-15T10:48:14.988Z,27.11
2023-05-15T10:50:43.120Z,27.25
2023-05-15T10:53:11.465Z,27.46
2023-05-15T10:55:39.706Z,27.68
2023-05-15T10:58:11.100Z,27.88
2023-05-15T11:00:43.529Z,27.67
2023-05-15T11:03:15.499Z,27.51
2023-05-15T11:06:02.875Z,27.44
2023-05-15T11:08:31.323Z,27.57
2023-05-15T11:10:59.628Z,27.73
2023-05-15T11:13:27.897Z,27.78
2023-05-15T11:15:57.416Z,27.89
2023-05-15T11:18:25.850Z,27.76
2023-05-15T11:20:53.928Z,27.69
2023-05-15T11:23:22.903Z,27.57
2023-05-15T11:25:57.712Z,27.71
2023-05-15T11:28:29.291Z,28.02
2023-05-15T11:31:00.531Z,28.12
2023-05-15T11:33:29.901Z,28.17
2023-05-15T11:35:59.512Z,28.04
2023-05-15T11:38:27.719Z,28.12
2023-05-15T11:41:03.235Z,28.25
2023-05-15T11:43:32.462Z,28.33
2023-05-15T11:46:04.130Z,28.19
2023-05-15T11:48:33.423Z,27.91
2023-05-15T11:51:02.158Z,27.80
2023-05-15T11:53:31.282Z,27.93
2023-05-15T11:55:59.786Z,27.74
2023-05-15T11:58:27.943Z,27.71
2023-05-15T12:00:57.980Z,27.47
2023-05-15T12:03:27.754Z,27.51
2023-05-15T12:05:59.574Z,27.78
2023-05-15T12:08:36.317Z,27.91
2023-05-15T12:11:05.010Z,28.02
2023-05-15T12:13:34.037Z,28.27
2023-05-15T12:16:03.713Z,28.43
2023-05-15T12:18:33.166Z,28.42
2023-05-15T12:21:01.702Z,28.49
2023-05-15T12:23:29.932Z,28.67
2023-05-15T12:26:01.195Z,28.90
2023-05-15T12:28:30.841Z,29.12
2023-05-15T12:30:59.649Z,29.29
2023-05-15T12:33:28.108Z,29.28
2023-05-15T12:36:01.188Z,29.39
2023-05-15T12:38:30.830Z,29.49
2023-05-15T12:40:59.504Z,29.37
2023-05-15T12:43:27.995Z,29.57
2023-05-15T12:45:57.028Z,29.77
2023-05-15T12:48:32.708Z,29.68
2023-05-15T12:51:08.151Z,29.55
2023-05-15T12:53:38.914Z,29.50
2023-05-15T12:56:07.779Z,29.44
2023-05-15T12:58:36.797Z,29.11
2023-05-15T13:01:05.026Z,28.78
2023-05-15T13:03:34.316Z,28.55
2023-05-15T13:06:07.461Z,28.40
2023-05-15T13:08:40.049Z,28.14
2023-05-15T13:11:11.744Z,27.92
2023-05-15T13:13:46.900Z,27.81
2023-05-15T13:16:19.021Z,27.72
2023-05-15T13:18:47.747Z,27.59
2023-05-15T13:21:16.602Z,27.47
2023-05-15T13:23:45.068Z,27.32
2023-05-15T13:26:13.681Z,27.14
2023-05-15T13:28:42.259Z,26.94
2023-05-15T13:31:10.800Z,26.75
2023-05-15T13:33:39.514Z,26.54
2023-05-15T13:36:07.998Z,26.37
2023-05-15T13:38:36.595Z,26.21
2023-05-15T13:41:05.066Z,26.11
2023-05-15T13:43:33.344Z,25.97
2023-05-15T13:46:01.825Z,25.82
2023-05-15T13:48:30.213Z,25.67
2023-05-15T13:50:58.498Z,25.46
2023-05-15T13:53:27.384Z,25.31
2023-05-15T13:55:55.632Z,25.12
2023-05-15T13:58:26.876Z,24.96
2023-05-15T14:00:55.266Z,24.88
2023-05-15T14:03:23.782Z,24.78
2023-05-15T14:05:52.047Z,24.73
2023-05-15T14:08:21.560Z,24.68
2023-05-15T14:10:50.040Z,24.55
2023-05-15T14:13:21.391Z,24.50
2023-05-15T14:15:50.011Z,24.48
2023-05-15T14:18:18.254Z,24.39
2023-05-15T14:20:46.532Z,24.33
2023-05-15T14:23:15.697Z,24.28
2023-05-15T14:25:44.122Z,24.25
2023-05-15T14:28:13.316Z,24.22
2023-05-15T14:30:41.888Z,24.19
2023-05-15T14:33:10.180Z,24.20
2023-05-15T14:35:38.446Z,24.15
2023-05-15T14:38:07.047Z,24.10
2023-05-15T14:40:35.315Z,24.01
2023-05-15T14:43:03.893Z,24.00
2023-05-15T14:45:33.402Z,23.96
2023-05-15T14:48:01.946Z,23.88
2023-05-15T14:50:30.264Z,23.77
2023-05-15T14:52:58.539Z,23.63
2023-05-15T14:55:26.753Z,23.50
2023-05-15T14:57:54.900Z,23.38
2023-05-15T15:00:23.369Z,23.25
2023-05-15T15:02:52.237Z,23.14
2023-05-15T15:05:20.747Z,23.06
2023-05-15T15:08:08.186Z,22.99
2023-05-15T15:10:37.788Z,22.92
2023-05-15T15:13:06.505Z,22.78
2023-05-15T15:15:35.468Z,22.67
2023-05-15T15:18:03.970Z,22.54
2023-05-15T15:20:32.325Z,22.39
2023-05-15T15:23:00.812Z,22.24
2023-05-15T15:25:30.712Z,22.14
2023-05-15T15:28:00.749Z,22.03
2023-05-15T15:30:29.026Z,21.95
2023-05-15T15:32:58.119Z,21.85
2023-05-15T15:35:26.524Z,21.76
2023-05-15T15:37:55.414Z,21.63
2023-05-15T15:40:24.555Z,21.51
2023-05-15T15:42:54.348Z,21.40
2023-05-15T15:45:22.991Z,21.31
2023-05-15T15:47:51.294Z,21.25
2023-05-15T15:50:19.624Z,21.16
2023-05-15T15:52:48.029Z,21.05
2023-05-15T15:55:16.541Z,20.95
2023-05-15T15:57:45.009Z,20.86
2023-05-15T16:00:13.787Z,20.72
2023-05-15T16:02:42.197Z,20.60
2023-05-15T16:05:10.957Z,20.48
2023-05-15T16:07:39.345Z,20.34
2023-05-15T16:10:12.829Z,20.21
2023-05-15T16:12:43.101Z,20.13
2023-05-15T16:17:44.084Z,19.87
2023-05-15T16:20:12.258Z,19.75
2023-05-15T16:22:41.880Z,19.63
2023-05-15T16:25:10.412Z,19.49
2023-05-15T16:27:38.669Z,19.38
2023-05-15T16:30:07.153Z,19.25
2023-05-15T16:32:35.650Z,19.14
2023-05-15T16:35:04.122Z,19.02
2023-05-15T16:37:32.681Z,18.92
2023-05-15T16:40:00.989Z,18.83
2023-05-15T16:42:29.118Z,18.75
2023-05-15T16:44:57.455Z,18.65
2023-05-15T16:47:25.588Z,18.58
2023-05-15T16:49:53.783Z,18.51
2023-05-15T16:52:22.364Z,18.46
2023-05-15T16:54:50.774Z,18.39
2023-05-15T16:57:19.141Z,18.30
2023-05-15T16:59:48.126Z,18.23
2023-05-15T17:02:16.359Z,18.15
2023-05-15T17:04:44.570Z,18.08
2023-05-15T17:07:12.724Z,18.02
2023-05-15T17:09:43.281Z,17.95
2023-05-15T17:12:11.966Z,17.89
2023-05-15T17:14:40.551Z,17.84
2023-05-15T17:17:09.243Z,17.79
2023-05-15T17:19:37.471Z,17.74
2023-05-15T17:22:05.796Z,17.71
2023-05-15T17:24:49.312Z,17.67
2023-05-15T17:27:18.751Z,17.62
2023-05-15T17:29:47.313Z,17.56
2023-05-15T17:32:16.910Z,17.51
2023-05-15T17:34:45.741Z,17.46
2023-05-15T17:37:14.362Z,17.40
2023-05-15T17:39:42.940Z,17.35
2023-05-15T17:42:11.370Z,17.30
2023-05-15T17:44:39.868Z,17.24
2023-05-15T17:47:10.212Z,17.18
2023-05-15T17:49:39.220Z,17.11
2023-05-15T17:52:08.901Z,17.04
2023-05-15T17:54:36.958Z,16.98
2023-05-15T17:57:05.694Z,16.92
2023-05-15T17:59:34.741Z,16.86
2023-05-15T18:02:03.231Z,16.80
2023-05-15T18:04:31.602Z,16.74
2023-05-15T18:07:00.026Z,16.68
2023-05-15T18:09:28.281Z,16.61
2023-05-15T18:11:56.656Z,16.54
2023-05-15T18:14:25.365Z,16.48
2023-05-15T18:16:54.179Z,16.43
2023-05-15T18:19:22.364Z,16.38
2023-05-15T18:21:52.745Z,16.31
2023-05-15T18:24:21.205Z,16.26
2023-05-15T18:26:49.487Z,16.20
2023-05-15T18:29:18.019Z,16.15
2023-05-15T18:31:46.428Z,16.07
2023-05-15T18:34:14.724Z,15.96
2023-05-15T18:36:43.108Z,15.85
2023-05-15T18:39:11.493Z,15.78
2023-05-15T18:41:39.633Z,15.73
2023-05-15T18:44:08.044Z,15.66
2023-05-15T18:46:36.280Z,15.59
2023-05-15T18:49:04.608Z,15.54
2023-05-15T18:51:33.182Z,15.51
2023-05-15T18:54:01.666Z,15.47
2023-05-15T18:56:29.746Z,15.44
2023-05-15T18:58:58.017Z,15.41
2023-05-15T19:01:26.343Z,15.36
2023-05-15T19:03:54.880Z,15.31
2023-05-15T19:06:23.053Z,15.27
2023-05-15T19:08:51.440Z,15.23
2023-05-15T19:11:19.815Z,15.21
2023-05-15T19:13:48.107Z,15.18
2023-05-15T19:16:16.282Z,15.17
2023-05-15T19:18:45.281Z,15.14
2023-05-15T19:21:15.906Z,15.12
2023-05-15T19:24:20.935Z,15.09
2023-05-15T19:26:49.323Z,15.06
2023-05-15T19:29:17.594Z,15.03
2023-05-15T19:31:46.216Z,15.01
2023-05-15T19:34:14.867Z,14.97
2023-05-15T19:36:43.068Z,14.93
2023-05-15T19:39:11.292Z,14.88
2023-05-15T19:41:40.010Z,14.81
2023-05-15T19:44:08.696Z,14.76
2023-05-15T19:46:37.303Z,14.70
2023-05-15T19:49:06.244Z,14.63
2023-05-15T19:51:34.895Z,14.56
2023-05-15T19:54:03.031Z,14.49
2023-05-15T19:56:31.611Z,14.43
2023-05-15T19:59:00.696Z,14.38
2023-05-15T20:01:29.015Z,14.31
2023-05-15T20:03:57.448Z,14.25
2023-05-15T20:06:26.473Z,14.19
2023-05-15T20:08:54.637Z,14.14
2023-05-15T20:11:23.741Z,14.09
2023-05-15T20:13:52.218Z,14.04
2023-05-15T20:16:22.067Z,13.99
2023-05-15T20:18:54.868Z,13.95
2023-05-15T20:21:23.422Z,13.91
2023-05-15T20:23:51.676Z,13.87
2023-05-15T20:26:21.901Z,13.82
2023-05-15T20:28:50.306Z,13.77
2023-05-15T20:31:18.553Z,13.71
2023-05-15T20:33:47.044Z,13.65
2023-05-15T20:36:16.825Z,13.59
2023-05-15T20:38:45.178Z,13.53
2023-05-15T20:41:13.618Z,13.47
2023-05-15T20:43:41.961Z,13.42
2023-05-15T20:46:10.257Z,13.39
2023-05-15T20:48:38.761Z,13.36
2023-05-15T20:51:07.030Z,13.35
2023-05-15T20:53:35.311Z,13.34
2023-05-15T20:56:03.694Z,13.33
2023-05-15T20:58:32.076Z,13.32
2023-05-15T21:01:03.473Z,13.30
2023-05-15T21:03:31.752Z,13.29
2023-05-15T21:06:02.430Z,13.27
2023-05-15T21:08:30.828Z,13.24
2023-05-15T21:10:58.982Z,13.21
2023-05-15T21:13:27.881Z,13.17
2023-05-15T21:15:56.261Z,13.14
2023-05-15T21:18:24.542Z,13.11
2023-05-15T21:20:53.253Z,13.08
2023-05-15T21:23:21.888Z,13.05
2023-05-15T21:25:50.300Z,13.01
2023-05-15T21:28:18.470Z,12.98
2023-05-15T21:30:46.726Z,12.96
2023-05-15T21:33:15.226Z,12.93
2023-05-15T21:35:44.630Z,12.91
2023-05-15T21:38:12.705Z,12.91
2023-05-15T21:40:41.389Z,12.90
2023-05-15T21:43:09.774Z,12.91
2023-05-15T21:45:37.951Z,12.91
2023-05-15T21:48:06.333Z,12.92
2023-05-15T21:50:35.228Z,12.91
2023-05-15T21:53:04.530Z,12.90
2023-05-15T21:55:32.715Z,12.88
2023-05-15T21:58:00.973Z,12.86
2023-05-15T22:00:30.066Z,12.85
2023-05-15T22:02:58.443Z,12.82
2023-05-15T22:05:26.723Z,12.80
2023-05-15T22:07:55.241Z,12.76
2023-05-15T22:10:23.758Z,12.73
2023-05-15T22:12:59.165Z,12.69
2023-05-15T22:15:27.516Z,12.65
2023-05-15T22:17:56.153Z,12.63
2023-05-15T22:20:25.100Z,12.61
2023-05-15T22:22:53.889Z,12.59
2023-05-15T22:25:22.372Z,12.58
2023-05-15T22:27:50.872Z,12.56
2023-05-15T22:30:19.328Z,12.53
2023-05-15T22:32:47.468Z,12.51
2023-05-15T22:35:16.043Z,12.49
2023-05-15T22:37:45.704Z,12.47
2023-05-15T22:40:14.012Z,12.45
2023-05-15T22:42:42.462Z,12.41
2023-05-15T22:45:10.938Z,12.37
2023-05-15T22:47:39.179Z,12.34
2023-05-15T22:50:08.029Z,12.32
2023-05-15T22:52:38.200Z,12.32
2023-05-15T22:55:07.461Z,12.31
2023-05-15T22:57:45.233Z,12.33
2023-05-15T23:00:13.939Z,12.33
2023-05-15T23:02:44.278Z,12.34
2023-05-15T23:05:13.382Z,12.33
2023-05-15T23:08:29.849Z,12.34
2023-05-15T23:11:17.177Z,12.33
2023-05-15T23:13:45.403Z,12.33
2023-05-15T23:16:13.678Z,12.33
2023-05-15T23:18:42.322Z,12.32
2023-05-15T23:21:10.488Z,12.31
2023-05-15T23:23:39.076Z,12.29
2023-05-15T23:26:07.495Z,12.27
2023-05-15T23:28:36.041Z,12.25
2023-05-15T23:31:04.308Z,12.25
2023-05-15T23:33:33.106Z,12.25
2023-05-15T23:36:02.332Z,12.26
2023-05-15T23:38:30.888Z,12.27
2023-05-15T23:40:59.490Z,12.27
2023-05-15T23:43:28.274Z,12.27
2023-05-15T23:45:56.743Z,12.27
2023-05-15T23:48:25.334Z,12.27
2023-05-15T23:50:54.725Z,12.26
2023-05-15T23:53:23.116Z,12.26
2023-05-15T23:55:51.296Z,12.27
2023-05-15T23:58:19.589Z,12.27
